Flight Track Log - Related Links

Times and Time Zones

All times are in EDT time to prevent confusion due to time zone crossing. See the N465TP flight status page for this flight to view local times or setup timezone preferences in your user account.

Time Position Orientation Groundspeed Altitude Reporting Facility
EDT Latitude Longitude Course Direction KTS MPH feet Rate Location/Type
Mon 02:11:20 PM 33.8000 -116.1333 40° Northeast 131 151 4,800  Level Southern California TRACON
Mon 02:12:20 PM 33.8167 -116.1167 40° Northeast 138 159 6,100 1,250 Climbing Southern California TRACON
Mon 02:13:20 PM 33.8667 -116.1167 360° North 146 168 7,300 1,163 Climbing Southern California TRACON
Mon 02:14:29 PM 33.9072 -116.1122 North 155 178 8,600 1,145 Climbing Los Angeles Center
Mon 02:15:31 PM 33.9453 -116.1061 North 147 169 9,800 1,113 Climbing Los Angeles Center
Mon 02:16:33 PM 33.9664 -116.0575 62° Northeast 153 176 10,900 1,210 Climbing Los Angeles Center
Mon 02:17:35 PM 33.9961 -116.0000 58° Northeast 165 190 12,300 1,200 Climbing Los Angeles Center
Mon 02:18:38 PM 34.0214 -115.9517 58° Northeast 168 193 13,400 1,056 Climbing Los Angeles Center
Mon 02:19:40 PM 34.0464 -115.9006 59° Northeast 175 201 14,500 1,016 Climbing Los Angeles Center
Mon 02:20:42 PM 34.0719 -115.8489 59° Northeast 178 205 15,500 968 Climbing Los Angeles Center
Mon 02:21:44 PM 34.0986 -115.7947 59° Northeast 187 215 16,500 968 Climbing Los Angeles Center
Mon 02:22:46 PM 34.1311 -115.7478 50° Northeast 185 213 17,500 1,065 Climbing Los Angeles Center
Mon 02:23:48 PM 34.1781 -115.6950 43° Northeast 192 221 18,700 1,113 Climbing Los Angeles Center
Mon 02:24:50 PM 34.2164 -115.6508 44° Northeast 191 220 19,800 968 Climbing Los Angeles Center
Mon 02:25:52 PM 34.2672 -115.6264 22° Northeast 194 223 20,700 871 Climbing Los Angeles Center
Mon 02:26:54 PM 34.3175 -115.5992 24° Northeast 198 228 21,600 864 Climbing Los Angeles Center
Mon 02:27:57 PM 34.3694 -115.5731 23° Northeast 201 231 22,500 864 Climbing Los Angeles Center
Mon 02:28:59 PM 34.4344 -115.5381 24° Northeast 216 249 23,400 968 Climbing Los Angeles Center
Mon 02:30:01 PM 34.4889 -115.5122 21° North 208 239 24,500 1,016 Climbing Los Angeles Center
Mon 02:31:03 PM 34.5417 -115.4847 23° Northeast 206 237 25,500 919 Climbing Los Angeles Center
Mon 02:32:05 PM 34.5950 -115.4547 25° Northeast 209 241 26,400 677 Climbing Los Angeles Center
Mon 02:33:07 PM 34.6506 -115.4261 23° Northeast 216 249 26,900 290 Climbing Los Angeles Center
Mon 02:34:09 PM 34.7253 -115.3869 23° Northeast 245 282 27,000 48 Climbing Los Angeles Center
Mon 02:35:11 PM 34.7914 -115.3522 23° Northeast 257 296 27,000  Level Los Angeles Center
Mon 02:36:14 PM 34.8589 -115.3164 24° Northeast 264 304 27,000 -48 Level Los Angeles Center
Mon 02:37:16 PM 34.9314 -115.2769 24° Northeast 266 306 26,900  Descending Los Angeles Center
Mon 02:38:18 PM 34.9981 -115.2428 23° Northeast 262 302 27,000 48 Climbing Los Angeles Center
Mon 02:39:20 PM 35.0592 -115.2106 23° Northeast 258 297 27,000  Level Los Angeles Center
Mon 02:40:22 PM 35.1375 -115.1689 24° Northeast 257 296 27,000  Level Los Angeles Center
Mon 02:41:24 PM 35.2031 -115.1325 24° Northeast 258 297 27,000  Level Los Angeles Center
Mon 02:42:26 PM 35.2683 -115.0961 24° Northeast 258 297 27,000  Level Los Angeles Center
Mon 02:43:28 PM 35.3325 -115.0594 25° Northeast 256 295 27,000  Level Los Angeles Center
Mon 02:44:30 PM 35.3989 -115.0217 25° Northeast 260 299 27,000  Level Los Angeles Center
Mon 02:45:33 PM 35.4644 -114.9842 25° Northeast 260 299 27,000  Level Los Angeles Center
Mon 02:46:35 PM 35.5425 -114.9392 25° Northeast 260 299 27,000  Level Los Angeles Center
Mon 02:47:37 PM 35.6081 -114.9028 24° Northeast 260 299 27,000  Level Los Angeles Center
Mon 02:48:39 PM 35.6722 -114.8661 25° Northeast 256 295 27,000  Level Los Angeles Center
Mon 02:49:41 PM 35.7378 -114.8278 25° Northeast 260 299 27,000  Level Los Angeles Center
Mon 02:50:43 PM 35.8031 -114.7911 24° Northeast 259 298 27,000  Level Los Angeles Center
Mon 02:51:45 PM 35.8811 -114.7461 25° Northeast 258 297 27,000  Level Los Angeles Center
Mon 02:52:47 PM 35.9467 -114.7089 25° Northeast 259 298 27,000  Level Los Angeles Center
Mon 02:53:50 PM 36.0114 -114.6717 25° Northeast 258 297 27,000  Level Los Angeles Center
Mon 02:54:52 PM 36.0756 -114.6339 25° Northeast 256 295 27,000  Level Los Angeles Center
Mon 02:55:54 PM 36.1397 -114.5969 25° Northeast 256 295 27,000  Level Los Angeles Center
Mon 02:56:56 PM 36.2039 -114.5594 25° Northeast 256 295 27,000  Level Los Angeles Center
Mon 02:57:58 PM 36.2808 -114.5153 25° Northeast 256 295 27,000  Level Los Angeles Center
Mon 02:59:00 PM 36.3444 -114.4775 26° Northeast 255 293 27,000  Level Los Angeles Center
Mon 03:00:02 PM 36.4086 -114.4408 25° Northeast 255 293 27,000  Level Los Angeles Center
Mon 03:01:04 PM 36.4717 -114.4033 26° Northeast 253 291 27,000  Level Los Angeles Center
Mon 03:02:07 PM 36.5347 -114.3661 25° Northeast 251 289 27,000  Level Los Angeles Center
Mon 03:03:09 PM 36.6086 -114.3194 27° Northeast 249 287 27,000  Level Los Angeles Center
Mon 03:04:11 PM 36.6708 -114.2808 26° Northeast 249 287 27,000  Level Los Angeles Center
Mon 03:05:13 PM 36.7292 -114.2344 33° Northeast 251 289 27,000  Level Los Angeles Center
Mon 03:06:15 PM 36.7892 -114.1900 31° Northeast 249 287 27,000  Level Los Angeles Center
Mon 03:07:17 PM 36.8483 -114.1464 31° Northeast 248 285 27,000  Level Los Angeles Center
Mon 03:08:19 PM 36.9103 -114.1089 26° Northeast 246 283 27,000  Level Los Angeles Center
Mon 03:09:21 PM 36.9867 -114.0653 25° Northeast 250 288 27,000  Level Los Angeles Center
Mon 03:10:24 PM 37.0500 -114.0289 25° Northeast 250 288 27,000  Level Los Angeles Center
Mon 03:11:26 PM 37.1125 -113.9925 25° Northeast 249 287 27,000  Level Los Angeles Center
Mon 03:12:28 PM 37.1756 -113.9550 25° Northeast 250 288 27,000  Level Los Angeles Center
Mon 03:13:30 PM 37.2383 -113.9194 24° Northeast 248 285 27,000  Level Los Angeles Center
Mon 03:14:32 PM 37.3136 -113.8747 25° Northeast 249 287 27,000  Level Los Angeles Center
Mon 03:15:34 PM 37.3719 -113.8400 25° Northeast 248 285 27,000  Level Los Angeles Center
Mon 03:16:36 PM 37.4344 -113.8025 25° Northeast 248 285 27,000  Level Los Angeles Center
Mon 03:17:38 PM 37.4964 -113.7647 26° Northeast 245 282 27,000  Level Los Angeles Center
Mon 03:18:40 PM 37.5594 -113.7269 25° Northeast 249 287 27,000  Level Los Angeles Center
Mon 03:19:43 PM 37.6342 -113.6828 25° Northeast 247 284 27,000  Level Los Angeles Center
Mon 03:20:45 PM 37.6964 -113.6450 26° Northeast 246 283 27,000  Level Los Angeles Center
Mon 03:21:47 PM 37.7600 -113.6078 25° Northeast 249 287 27,000  Level Los Angeles Center
Mon 03:22:49 PM 37.8225 -113.5686 26° Northeast 249 287 27,000  Level Los Angeles Center
Mon 03:23:51 PM 37.8850 -113.5311 25° Northeast 248 285 27,000  Level Los Angeles Center
Mon 03:24:53 PM 37.9486 -113.4931 25° Northeast 250 288 27,000  Level Los Angeles Center
Mon 03:25:55 PM 38.0231 -113.4469 26° Northeast 248 285 27,000  Level Los Angeles Center
Mon 03:26:58 PM 38.0864 -113.4075 26° Northeast 250 288 27,000  Level Los Angeles Center
Mon 03:28:00 PM 38.1497 -113.3708 24° Northeast 250 288 27,000  Level Los Angeles Center
Mon 03:29:02 PM 38.2122 -113.3314 26° Northeast 249 287 27,000  Level Los Angeles Center
Mon 03:30:13 PM 38.2867 -113.2858 26° Northeast 249 287 27,000  Level Salt Lake Center
Mon 03:31:15 PM 38.3489 -113.2497 24° Northeast 247 284 27,000  Level Salt Lake Center
Mon 03:32:16 PM 38.4119 -113.2100 26° Northeast 250 288 27,000  Level Salt Lake Center
Mon 03:33:18 PM 38.4744 -113.1700 27° Northeast 251 289 27,000  Level Salt Lake Center
Mon 03:34:20 PM 38.5483 -113.1233 26° Northeast 248 285 27,000  Level Salt Lake Center
Mon 03:35:22 PM 38.6108 -113.0867 25° Northeast 247 284 27,000  Level Salt Lake Center
Mon 03:36:24 PM 38.6722 -113.0469 27° Northeast 248 285 27,000  Level Salt Lake Center
Mon 03:37:26 PM 38.7347 -113.0089 25° Northeast 249 287 27,000  Level Salt Lake Center
Mon 03:38:28 PM 38.7967 -112.9697 26° Northeast 249 287 27,000  Level Salt Lake Center
Mon 03:39:29 PM 38.8594 -112.9297 26° Northeast 250 288 27,000  Level Salt Lake Center
Mon 03:40:31 PM 38.9219 -112.8906 26° Northeast 251 289 27,000  Level Salt Lake Center
Mon 03:41:33 PM 38.9972 -112.8436 26° Northeast 251 289 27,000  Level Salt Lake Center
Mon 03:42:35 PM 39.0606 -112.8047 25° Northeast 252 290 27,000  Level Salt Lake Center
Mon 03:43:37 PM 39.1242 -112.7644 26° Northeast 254 292 27,000  Level Salt Lake Center
Mon 03:44:39 PM 39.1875 -112.7247 26° Northeast 254 292 27,000  Level Salt Lake Center
Mon 03:45:43 PM 39.2508 -112.6850 26° Northeast 253 291 27,000  Level Salt Lake Center
Mon 03:46:42 PM 39.3247 -112.6375 26° Northeast 255 293 27,000  Level Salt Lake Center
Mon 03:47:44 PM 39.3886 -112.5967 26° Northeast 256 295 27,000  Level Salt Lake Center
Mon 03:48:46 PM 39.4517 -112.5567 26° Northeast 255 293 27,000  Level Salt Lake Center
Mon 03:49:48 PM 39.5147 -112.5175 26° Northeast 252 290 27,000  Level Salt Lake Center
Mon 03:50:50 PM 39.5778 -112.4756 27° Northeast 255 293 27,000  Level Salt Lake Center
Mon 03:51:52 PM 39.6403 -112.4356 26° Northeast 252 290 27,000  Level Salt Lake Center
Mon 03:52:53 PM 39.7036 -112.3958 26° Northeast 254 292 27,000  Level Salt Lake Center
Mon 03:53:55 PM 39.7783 -112.3478 26° Northeast 251 289 27,000  Level Salt Lake Center
Mon 03:54:57 PM 39.8414 -112.3069 26° Northeast 253 291 27,000  Level Salt Lake Center
Mon 03:55:59 PM 39.9039 -112.2658 27° Northeast 252 290 27,000  Level Salt Lake Center
Mon 03:57:01 PM 39.9667 -112.2253 26° Northeast 252 290 27,000  Level Salt Lake Center
Mon 03:58:02 PM 40.0292 -112.1842 27° Northeast 252 290 27,000  Level Salt Lake Center
Mon 03:59:04 PM 40.0917 -112.1433 27° Northeast 255 293 27,000  Level Salt Lake Center
Mon 04:00:08 PM 40.1658 -112.0964 26° Northeast 249 287 27,000  Level Salt Lake Center
Mon 04:01:09 PM 40.2281 -112.0558 26° Northeast 251 289 27,000  Level Salt Lake Center
Mon 04:02:11 PM 40.2897 -112.0150 27° Northeast 250 288 27,000  Level Salt Lake Center
Mon 04:03:13 PM 40.3514 -111.9744 27° Northeast 249 287 27,000  Level Salt Lake Center
Mon 04:04:15 PM 40.4142 -111.9342 26° Northeast 252 290 27,000  Level Salt Lake Center
Mon 04:05:17 PM 40.4761 -111.8928 27° Northeast 251 289 27,000  Level Salt Lake Center
Mon 04:06:18 PM 40.5500 -111.8439 27° Northeast 249 287 27,000  Level Salt Lake Center
Mon 04:07:20 PM 40.6108 -111.8028 27° Northeast 248 285 27,000  Level Salt Lake Center
Mon 04:08:22 PM 40.6728 -111.7614 27° Northeast 250 288 27,000  Level Salt Lake Center
Mon 04:09:23 PM 40.7344 -111.7200 27° Northeast 251 289 27,000  Level Salt Lake Center
Mon 04:10:25 PM 40.7956 -111.6797 27° Northeast 248 285 27,000  Level Salt Lake Center
Mon 04:11:27 PM 40.8558 -111.6400 26° Northeast 244 281 27,000  Level Salt Lake Center
Mon 04:12:29 PM 40.9286 -111.5917 27° Northeast 246 283 27,000  Level Salt Lake Center
Mon 04:13:30 PM 40.9894 -111.5506 27° Northeast 248 285 27,000  Level Salt Lake Center
Mon 04:14:32 PM 41.0500 -111.5094 27° Northeast 248 285 27,000  Level Salt Lake Center
Mon 04:15:34 PM 41.1111 -111.4683 27° Northeast 247 284 27,000  Level Salt Lake Center
Mon 04:16:35 PM 41.1717 -111.4275 27° Northeast 246 283 27,000  Level Salt Lake Center
Mon 04:17:37 PM 41.2331 -111.3858 27° Northeast 248 285 27,000  Level Salt Lake Center
Mon 04:18:39 PM 41.3064 -111.3369 27° Northeast 246 283 27,000  Level Salt Lake Center
Mon 04:19:41 PM 41.3681 -111.2947 27° Northeast 250 288 27,000  Level Salt Lake Center
Mon 04:20:42 PM 41.4283 -111.2533 27° Northeast 244 281 27,000  Level Salt Lake Center
Mon 04:21:44 PM 41.4900 -111.2114 27° Northeast 249 287 27,000  Level Salt Lake Center
Mon 04:22:46 PM 41.5514 -111.1692 27° Northeast 249 287 27,000  Level Salt Lake Center
Mon 04:23:47 PM 41.6117 -111.1286 27° Northeast 246 283 27,000  Level Salt Lake Center
Mon 04:24:49 PM 41.6856 -111.0792 27° Northeast 248 285 27,000  Level Salt Lake Center
Mon 04:25:51 PM 41.7467 -111.0372 27° Northeast 247 284 27,000  Level Salt Lake Center
Mon 04:26:52 PM 41.8069 -110.9953 27° Northeast 246 283 27,000  Level Salt Lake Center
Mon 04:27:54 PM 41.8681 -110.9531 27° Northeast 247 284 27,000  Level Salt Lake Center
Mon 04:28:56 PM 41.9347 -110.9047 28° Northeast 245 282 27,000  Level Salt Lake Center
Mon 04:29:57 PM 41.9928 -110.8650 27° Northeast 245 282 27,000  Level Salt Lake Center
Mon 04:30:59 PM 42.0506 -110.8258 27° Northeast 242 278 27,000  Level Salt Lake Center
Mon 04:32:01 PM 42.1181 -110.7775 28° Northeast 246 283 27,000  Level Salt Lake Center
Mon 04:33:02 PM 42.1750 -110.7392 27° Northeast 242 278 27,000  Level Salt Lake Center
Mon 04:34:04 PM 42.2431 -110.6914 27° Northeast 245 282 27,000  Level Salt Lake Center
Mon 04:35:06 PM 42.3014 -110.6508 27° Northeast 247 284 27,000  Level Salt Lake Center
Mon 04:36:07 PM 42.3589 -110.6114 27° Northeast 245 282 27,000  Level Salt Lake Center
Mon 04:37:09 PM 42.4258 -110.5628 28° Northeast 245 282 27,000  Level Salt Lake Center
Mon 04:38:10 PM 42.4825 -110.5228 27° Northeast 240 276 27,000  Level Salt Lake Center
Mon 04:39:12 PM 42.5486 -110.4753 28° Northeast 240 276 27,000  Level Salt Lake Center
Mon 04:40:14 PM 42.6050 -110.4361 27° Northeast 239 275 27,000  Level Salt Lake Center
Mon 04:41:15 PM 42.6706 -110.3892 28° Northeast 238 274 27,000  Level Salt Lake Center
Mon 04:42:17 PM 42.7272 -110.3489 28° Northeast 242 278 27,000  Level Salt Lake Center
Mon 04:43:19 PM 42.7928 -110.3022 28° Northeast 240 276 27,000  Level Salt Lake Center
Mon 04:44:20 PM 42.8503 -110.2625 27° Northeast 241 277 27,000  Level Salt Lake Center
Mon 04:45:22 PM 42.9067 -110.2203 29° Northeast 242 278 27,000  Level Salt Lake Center
Mon 04:46:23 PM 42.9725 -110.1731 28° Northeast 240 276 27,000  Level Salt Lake Center
Mon 04:47:25 PM 43.0275 -110.1344 27° Northeast 235 270 27,000  Level Salt Lake Center
Mon 04:48:27 PM 43.0911 -110.0878 28° Northeast 232 267 27,000  Level Salt Lake Center
Mon 04:49:28 PM 43.1458 -110.0483 28° Northeast 233 268 27,000  Level Salt Lake Center
Mon 04:50:30 PM 43.2094 -110.0019 28° Northeast 234 269 27,000  Level Salt Lake Center
Mon 04:51:32 PM 43.2664 -109.9578 29° Northeast 237 273 27,000  Level Salt Lake Center
Mon 04:52:33 PM 43.3211 -109.9186 28° Northeast 235 270 27,000  Level Salt Lake Center
Mon 04:53:35 PM 43.3831 -109.8739 28° Northeast 232 267 27,000  Level Salt Lake Center
Mon 04:54:36 PM 43.4394 -109.8353 26° Northeast 228 262 27,000  Level Salt Lake Center
Mon 04:55:38 PM 43.4969 -109.7925 28° Northeast 233 268 27,000  Level Salt Lake Center
Mon 04:56:40 PM 43.5550 -109.7478 29° Northeast 232 267 27,000  Level Salt Lake Center
Mon 04:57:41 PM 43.6192 -109.7017 27° Northeast 232 267 27,000  Level Salt Lake Center
Mon 04:58:43 PM 43.6736 -109.6611 28° Northeast 233 268 27,000  Level Salt Lake Center
Mon 04:59:45 PM 43.7272 -109.6208 28° Northeast 231 266 27,000  Level Salt Lake Center
Mon 05:00:46 PM 43.7922 -109.5722 28° Northeast 236 272 27,000  Level Salt Lake Center
Mon 05:01:48 PM 43.8453 -109.5303 30° Northeast 232 267 27,000  Level Salt Lake Center
Mon 05:02:49 PM 43.9089 -109.4856 27° Northeast 232 267 27,000 -439 Level Salt Lake Center
Mon 05:03:51 PM 43.9636 -109.4464 27° Northeast 236 272 26,100 -1,016 Descending Salt Lake Center
Mon 05:04:53 PM 44.0214 -109.4014 29° Northeast 238 274 24,900 -1,317 Descending Salt Lake Center
Mon 05:05:54 PM 44.0756 -109.3614 28° Northeast 224 258 23,400 -1,610 Descending Salt Lake Center
Mon 05:06:56 PM 44.1381 -109.3133 29° Northeast 216 249 21,600 -1,694 Descending Salt Lake Center
Mon 05:07:58 PM 44.1925 -109.2731 28° Northeast 220 253 19,900 -1,659 Descending Salt Lake Center
Mon 05:08:59 PM 44.2442 -109.2350 28° Northeast 215 247 18,200 -1,512 Descending Salt Lake Center
Mon 05:10:01 PM 44.2919 -109.1992 28° Northeast 202 232 16,800 -1,317 Descending Salt Lake Center
Mon 05:11:02 PM 44.3356 -109.1658 29° Northeast 187 215 15,500 -1,065 Descending Salt Lake Center
Mon 05:12:05 PM 44.3789 -109.1331 28° Northeast 180 207 14,600 -857 Descending Salt Lake Center
Mon 05:14:00 PM 44.4861 -109.0371 25° Northeast  Level FlightAware Approximate
Mon 05:21:00 PM 44.5167 -109.0167 25° Northeast  Level FlightAware Approximate
Mon 05:22:00 PM 44.5202 -109.0238 25° Northeast  Level Estimated
Mon 05:23:00 PM 44.5167 -109.0167 25° Northeast  Level FlightAware Approximate
Mon 05:24:00 PM 44.5202 -109.0238 25° Northeast  Level Estimated
Mon 05:25:00 PM 44.5167 -109.0167 25° Northeast  Level FlightAware Approximate
Mon 05:26:00 PM 44.5202 -109.0238 25° Northeast  Level Estimated
Mon 05:27:00 PM 44.5167 -109.0167 25° Northeast  Level FlightAware Approximate
Mon 05:28:00 PM 44.5202 -109.0238 25° Northeast  Level Estimated
Mon 05:29:00 PM 44.5167 -109.0167 25° Northeast  Level FlightAware Approximate
Mon 05:30:00 PM 44.5202 -109.0238 25° Northeast  Level Estimated
Mon 05:31:00 PM 44.5167 -109.0167 25° Northeast  Level FlightAware Approximate

Login

Don't have an account? Register now (free) for customized features, flight alerts, and more!